sensor_id;sensor_type;location;lat;lon;timestamp;P1;durP1;ratioP1;P2;durP2;ratioP2
31730;SDS011;18310;55.586;12.286;2022-12-11T00:01:37;21.90;;;12.20;;
31730;SDS011;18310;55.586;12.286;2022-12-11T00:04:41;19.57;;;12.43;;
31730;SDS011;18310;55.586;12.286;2022-12-11T00:07:44;21.08;;;11.52;;
31730;SDS011;18310;55.586;12.286;2022-12-11T00:10:48;20.13;;;12.02;;
31730;SDS011;18310;55.586;12.286;2022-12-11T00:13:51;20.17;;;12.70;;
31730;SDS011;18310;55.586;12.286;2022-12-11T00:16:54;18.33;;;11.50;;
31730;SDS011;18310;55.586;12.286;2022-12-11T00:19:59;25.93;;;14.20;;
31730;SDS011;18310;55.586;12.286;2022-12-11T00:23:03;22.40;;;14.10;;
31730;SDS011;18310;55.586;12.286;2022-12-11T00:26:06;22.50;;;14.02;;
31730;SDS011;18310;55.586;12.286;2022-12-11T00:29:13;24.02;;;14.60;;
31730;SDS011;18310;55.586;12.286;2022-12-11T00:32:16;26.13;;;13.88;;
31730;SDS011;18310;55.586;12.286;2022-12-11T00:35:20;29.38;;;16.63;;
31730;SDS011;18310;55.586;12.286;2022-12-11T00:38:23;31.17;;;16.23;;
31730;SDS011;18310;55.586;12.286;2022-12-11T00:41:26;26.60;;;15.67;;
31730;SDS011;18310;55.586;12.286;2022-12-11T00:44:29;25.83;;;16.70;;
31730;SDS011;18310;55.586;12.286;2022-12-11T00:47:32;33.70;;;17.38;;
31730;SDS011;18310;55.586;12.286;2022-12-11T00:50:37;30.50;;;16.88;;
31730;SDS011;18310;55.586;12.286;2022-12-11T00:53:41;26.85;;;16.90;;
31730;SDS011;18310;55.586;12.286;2022-12-11T00:56:44;30.13;;;15.70;;
31730;SDS011;18310;55.586;12.286;2022-12-11T00:59:48;26.35;;;16.17;;
31730;SDS011;18310;55.586;12.286;2022-12-11T01:02:51;34.25;;;16.73;;
31730;SDS011;18310;55.586;12.286;2022-12-11T01:05:56;25.87;;;14.97;;
31730;SDS011;18310;55.586;12.286;2022-12-11T01:08:59;32.10;;;15.75;;
31730;SDS011;18310;55.586;12.286;2022-12-11T01:12:20;27.88;;;16.27;;
31730;SDS011;18310;55.586;12.286;2022-12-11T01:15:24;30.00;;;14.93;;
31730;SDS011;18310;55.586;12.286;2022-12-11T01:18:30;25.17;;;14.75;;
31730;SDS011;18310;55.586;12.286;2022-12-11T01:21:34;24.10;;;13.13;;
31730;SDS011;18310;55.586;12.286;2022-12-11T01:24:37;27.30;;;13.43;;
31730;SDS011;18310;55.586;12.286;2022-12-11T01:27:40;25.70;;;11.85;;
31730;SDS011;18310;55.586;12.286;2022-12-11T01:30:43;16.63;;;9.83;;
31730;SDS011;18310;55.586;12.286;2022-12-11T01:33:46;16.40;;;9.63;;
31730;SDS011;18310;55.586;12.286;2022-12-11T01:36:51;14.03;;;7.90;;
31730;SDS011;18310;55.586;12.286;2022-12-11T01:39:54;11.88;;;7.45;;
31730;SDS011;18310;55.586;12.286;2022-12-11T01:42:57;12.90;;;7.25;;
31730;SDS011;18310;55.586;12.286;2022-12-11T01:46:00;10.05;;;6.63;;
31730;SDS011;18310;55.586;12.286;2022-12-11T01:49:05;14.47;;;7.30;;
31730;SDS011;18310;55.586;12.286;2022-12-11T01:52:13;14.77;;;7.70;;
31730;SDS011;18310;55.586;12.286;2022-12-11T01:55:20;17.30;;;7.78;;
31730;SDS011;18310;55.586;12.286;2022-12-11T01:58:24;13.77;;;7.70;;
31730;SDS011;18310;55.586;12.286;2022-12-11T02:01:33;13.45;;;7.57;;
31730;SDS011;18310;55.586;12.286;2022-12-11T02:04:41;12.45;;;8.00;;
31730;SDS011;18310;55.586;12.286;2022-12-11T02:07:48;14.35;;;8.07;;
31730;SDS011;18310;55.586;12.286;2022-12-11T02:11:00;13.18;;;7.60;;
31730;SDS011;18310;55.586;12.286;2022-12-11T02:14:12;12.93;;;7.75;;
31730;SDS011;18310;55.586;12.286;2022-12-11T02:17:25;14.05;;;8.15;;
31730;SDS011;18310;55.586;12.286;2022-12-11T02:23:55;13.68;;;7.30;;
31730;SDS011;18310;55.586;12.286;2022-12-11T02:27:28;11.88;;;7.35;;
31730;SDS011;18310;55.586;12.286;2022-12-11T02:30:39;11.50;;;7.38;;
31730;SDS011;18310;55.586;12.286;2022-12-11T02:33:47;12.32;;;8.02;;
31730;SDS011;18310;55.586;12.286;2022-12-11T02:37:01;18.13;;;9.32;;
31730;SDS011;18310;55.586;12.286;2022-12-11T02:40:11;14.00;;;7.90;;
31730;SDS011;18310;55.586;12.286;2022-12-11T02:43:19;10.75;;;6.55;;
31730;SDS011;18310;55.586;12.286;2022-12-11T02:46:25;12.32;;;7.43;;
31730;SDS011;18310;55.586;12.286;2022-12-11T02:49:30;12.50;;;7.95;;
31730;SDS011;18310;55.586;12.286;2022-12-11T02:52:35;10.73;;;7.05;;
31730;SDS011;18310;55.586;12.286;2022-12-11T02:55:41;12.40;;;8.45;;
31730;SDS011;18310;55.586;12.286;2022-12-11T02:58:47;14.02;;;8.93;;
31730;SDS011;18310;55.586;12.286;2022-12-11T03:02:00;16.50;;;8.05;;
31730;SDS011;18310;55.586;12.286;2022-12-11T03:05:05;13.73;;;8.60;;
31730;SDS011;18310;55.586;12.286;2022-12-11T03:08:09;13.75;;;8.13;;
31730;SDS011;18310;55.586;12.286;2022-12-11T03:11:13;13.15;;;9.05;;
31730;SDS011;18310;55.586;12.286;2022-12-11T03:14:15;15.88;;;8.88;;
31730;SDS011;18310;55.586;12.286;2022-12-11T03:17:21;22.93;;;10.27;;
31730;SDS011;18310;55.586;12.286;2022-12-11T03:20:31;17.17;;;9.57;;
31730;SDS011;18310;55.586;12.286;2022-12-11T03:23:41;16.88;;;10.27;;
31730;SDS011;18310;55.586;12.286;2022-12-11T03:26:53;17.40;;;9.45;;
31730;SDS011;18310;55.586;12.286;2022-12-11T03:30:09;22.00;;;8.88;;
31730;SDS011;18310;55.586;12.286;2022-12-11T03:33:19;34.08;;;8.98;;
31730;SDS011;18310;55.586;12.286;2022-12-11T03:36:31;18.27;;;8.37;;
31730;SDS011;18310;55.586;12.286;2022-12-11T03:39:39;41.28;;;7.72;;
31730;SDS011;18310;55.586;12.286;2022-12-11T03:42:48;13.95;;;8.43;;
31730;SDS011;18310;55.586;12.286;2022-12-11T03:45:54;23.60;;;8.02;;
31730;SDS011;18310;55.586;12.286;2022-12-11T03:49:02;12.93;;;7.80;;
31730;SDS011;18310;55.586;12.286;2022-12-11T03:52:11;17.65;;;7.95;;
31730;SDS011;18310;55.586;12.286;2022-12-11T03:55:18;18.38;;;9.15;;
31730;SDS011;18310;55.586;12.286;2022-12-11T03:58:24;15.93;;;9.35;;
31730;SDS011;18310;55.586;12.286;2022-12-11T04:01:27;15.53;;;8.53;;
31730;SDS011;18310;55.586;12.286;2022-12-11T04:04:31;16.60;;;9.40;;
31730;SDS011;18310;55.586;12.286;2022-12-11T04:07:34;15.65;;;9.05;;
31730;SDS011;18310;55.586;12.286;2022-12-11T04:10:38;18.50;;;8.97;;
31730;SDS011;18310;55.586;12.286;2022-12-11T04:13:42;14.20;;;8.90;;
31730;SDS011;18310;55.586;12.286;2022-12-11T04:16:45;12.57;;;7.77;;
31730;SDS011;18310;55.586;12.286;2022-12-11T04:19:48;13.57;;;7.95;;
31730;SDS011;18310;55.586;12.286;2022-12-11T04:23:10;16.65;;;10.05;;
31730;SDS011;18310;55.586;12.286;2022-12-11T04:26:34;15.95;;;8.40;;
31730;SDS011;18310;55.586;12.286;2022-12-11T04:29:37;15.90;;;8.77;;
31730;SDS011;18310;55.586;12.286;2022-12-11T04:32:39;13.93;;;9.15;;
31730;SDS011;18310;55.586;12.286;2022-12-11T04:35:44;18.43;;;9.30;;
31730;SDS011;18310;55.586;12.286;2022-12-11T04:38:47;16.08;;;9.02;;
31730;SDS011;18310;55.586;12.286;2022-12-11T04:41:50;15.77;;;8.47;;
31730;SDS011;18310;55.586;12.286;2022-12-11T04:44:53;14.73;;;9.30;;
31730;SDS011;18310;55.586;12.286;2022-12-11T04:47:56;17.50;;;8.70;;
31730;SDS011;18310;55.586;12.286;2022-12-11T04:51:01;14.23;;;8.60;;
31730;SDS011;18310;55.586;12.286;2022-12-11T04:54:05;15.10;;;8.95;;
31730;SDS011;18310;55.586;12.286;2022-12-11T04:57:08;15.35;;;9.20;;
31730;SDS011;18310;55.586;12.286;2022-12-11T05:00:12;14.73;;;9.00;;
31730;SDS011;18310;55.586;12.286;2022-12-11T05:03:17;14.40;;;8.38;;
31730;SDS011;18310;55.586;12.286;2022-12-11T05:06:22;14.95;;;8.73;;
31730;SDS011;18310;55.586;12.286;2022-12-11T05:09:25;14.95;;;8.95;;
31730;SDS011;18310;55.586;12.286;2022-12-11T05:12:30;16.27;;;8.88;;
31730;SDS011;18310;55.586;12.286;2022-12-11T05:15:33;15.95;;;8.68;;
31730;SDS011;18310;55.586;12.286;2022-12-11T05:18:39;15.07;;;9.15;;
31730;SDS011;18310;55.586;12.286;2022-12-11T05:21:44;14.00;;;7.85;;
31730;SDS011;18310;55.586;12.286;2022-12-11T05:24:47;13.98;;;9.13;;
31730;SDS011;18310;55.586;12.286;2022-12-11T05:27:50;14.65;;;9.30;;
31730;SDS011;18310;55.586;12.286;2022-12-11T05:30:56;17.15;;;8.75;;
31730;SDS011;18310;55.586;12.286;2022-12-11T05:34:00;15.00;;;8.95;;
31730;SDS011;18310;55.586;12.286;2022-12-11T05:37:05;14.07;;;8.77;;
31730;SDS011;18310;55.586;12.286;2022-12-11T05:40:09;12.82;;;8.18;;
31730;SDS011;18310;55.586;12.286;2022-12-11T05:43:13;19.25;;;11.68;;
31730;SDS011;18310;55.586;12.286;2022-12-11T05:46:17;15.23;;;9.68;;
31730;SDS011;18310;55.586;12.286;2022-12-11T05:49:22;12.10;;;8.48;;
31730;SDS011;18310;55.586;12.286;2022-12-11T05:52:32;13.00;;;7.85;;
31730;SDS011;18310;55.586;12.286;2022-12-11T05:55:35;14.85;;;9.38;;
31730;SDS011;18310;55.586;12.286;2022-12-11T05:58:39;12.83;;;7.77;;
31730;SDS011;18310;55.586;12.286;2022-12-11T06:01:44;10.52;;;6.43;;
31730;SDS011;18310;55.586;12.286;2022-12-11T06:04:47;12.98;;;7.38;;
31730;SDS011;18310;55.586;12.286;2022-12-11T06:07:52;12.63;;;6.70;;
31730;SDS011;18310;55.586;12.286;2022-12-11T06:10:55;10.32;;;6.97;;
31730;SDS011;18310;55.586;12.286;2022-12-11T06:13:59;11.60;;;7.45;;
31730;SDS011;18310;55.586;12.286;2022-12-11T06:17:03;13.27;;;7.35;;
31730;SDS011;18310;55.586;12.286;2022-12-11T06:20:07;11.43;;;7.15;;
31730;SDS011;18310;55.586;12.286;2022-12-11T06:23:12;12.80;;;7.18;;
31730;SDS011;18310;55.586;12.286;2022-12-11T06:26:16;11.70;;;7.55;;
31730;SDS011;18310;55.586;12.286;2022-12-11T06:29:20;10.77;;;6.70;;
31730;SDS011;18310;55.586;12.286;2022-12-11T06:32:23;9.85;;;6.35;;
31730;SDS011;18310;55.586;12.286;2022-12-11T06:35:26;10.00;;;6.60;;
31730;SDS011;18310;55.586;12.286;2022-12-11T06:38:30;11.07;;;6.90;;
31730;SDS011;18310;55.586;12.286;2022-12-11T06:41:34;11.85;;;6.95;;
31730;SDS011;18310;55.586;12.286;2022-12-11T06:44:37;10.68;;;7.22;;
31730;SDS011;18310;55.586;12.286;2022-12-11T06:47:40;12.90;;;7.30;;
31730;SDS011;18310;55.586;12.286;2022-12-11T06:50:43;10.98;;;6.82;;
31730;SDS011;18310;55.586;12.286;2022-12-11T06:53:50;11.77;;;7.70;;
31730;SDS011;18310;55.586;12.286;2022-12-11T06:56:56;11.05;;;6.90;;
31730;SDS011;18310;55.586;12.286;2022-12-11T06:59:59;9.87;;;7.17;;
31730;SDS011;18310;55.586;12.286;2022-12-11T07:03:02;9.93;;;6.38;;
31730;SDS011;18310;55.586;12.286;2022-12-11T07:09:10;9.30;;;6.28;;
31730;SDS011;18310;55.586;12.286;2022-12-11T07:12:17;9.90;;;6.20;;
31730;SDS011;18310;55.586;12.286;2022-12-11T07:15:20;10.97;;;6.23;;
31730;SDS011;18310;55.586;12.286;2022-12-11T07:18:23;9.97;;;6.10;;
31730;SDS011;18310;55.586;12.286;2022-12-11T07:21:26;10.48;;;6.20;;
31730;SDS011;18310;55.586;12.286;2022-12-11T07:24:30;9.68;;;6.07;;
31730;SDS011;18310;55.586;12.286;2022-12-11T07:27:33;11.35;;;6.55;;
31730;SDS011;18310;55.586;12.286;2022-12-11T07:30:36;10.60;;;6.63;;
31730;SDS011;18310;55.586;12.286;2022-12-11T07:33:39;10.30;;;6.70;;
31730;SDS011;18310;55.586;12.286;2022-12-11T07:36:44;11.23;;;7.15;;
31730;SDS011;18310;55.586;12.286;2022-12-11T07:39:48;13.60;;;7.07;;
31730;SDS011;18310;55.586;12.286;2022-12-11T07:42:51;12.20;;;7.95;;
31730;SDS011;18310;55.586;12.286;2022-12-11T07:45:58;10.13;;;6.63;;
31730;SDS011;18310;55.586;12.286;2022-12-11T07:49:03;11.88;;;7.72;;
31730;SDS011;18310;55.586;12.286;2022-12-11T07:52:07;15.00;;;9.38;;
31730;SDS011;18310;55.586;12.286;2022-12-11T07:55:11;12.23;;;8.05;;
31730;SDS011;18310;55.586;12.286;2022-12-11T07:58:14;14.45;;;8.73;;
31730;SDS011;18310;55.586;12.286;2022-12-11T08:01:18;14.75;;;8.52;;
31730;SDS011;18310;55.586;12.286;2022-12-11T08:04:26;11.90;;;7.60;;
31730;SDS011;18310;55.586;12.286;2022-12-11T08:07:29;12.18;;;6.95;;
31730;SDS011;18310;55.586;12.286;2022-12-11T08:10:33;13.32;;;7.18;;
31730;SDS011;18310;55.586;12.286;2022-12-11T08:13:36;13.75;;;8.05;;
31730;SDS011;18310;55.586;12.286;2022-12-11T08:19:44;11.10;;;7.13;;
31730;SDS011;18310;55.586;12.286;2022-12-11T08:22:47;13.18;;;8.00;;
31730;SDS011;18310;55.586;12.286;2022-12-11T08:25:59;14.10;;;7.85;;
31730;SDS011;18310;55.586;12.286;2022-12-11T08:29:04;12.43;;;7.50;;
31730;SDS011;18310;55.586;12.286;2022-12-11T08:32:07;12.85;;;7.32;;
31730;SDS011;18310;55.586;12.286;2022-12-11T08:35:12;11.60;;;7.05;;
31730;SDS011;18310;55.586;12.286;2022-12-11T08:38:16;11.70;;;6.70;;
31730;SDS011;18310;55.586;12.286;2022-12-11T08:41:27;11.68;;;6.55;;
31730;SDS011;18310;55.586;12.286;2022-12-11T08:44:32;11.38;;;7.20;;
31730;SDS011;18310;55.586;12.286;2022-12-11T08:47:35;11.45;;;7.22;;
31730;SDS011;18310;55.586;12.286;2022-12-11T08:50:38;11.02;;;6.75;;
31730;SDS011;18310;55.586;12.286;2022-12-11T08:53:42;11.98;;;7.18;;
31730;SDS011;18310;55.586;12.286;2022-12-11T08:56:46;13.05;;;7.38;;
31730;SDS011;18310;55.586;12.286;2022-12-11T08:59:56;10.90;;;7.38;;
31730;SDS011;18310;55.586;12.286;2022-12-11T09:02:59;13.57;;;6.90;;
31730;SDS011;18310;55.586;12.286;2022-12-11T09:06:04;10.75;;;6.93;;
31730;SDS011;18310;55.586;12.286;2022-12-11T09:09:09;13.10;;;7.82;;
31730;SDS011;18310;55.586;12.286;2022-12-11T09:12:14;11.63;;;7.60;;
31730;SDS011;18310;55.586;12.286;2022-12-11T09:15:17;10.45;;;6.43;;
31730;SDS011;18310;55.586;12.286;2022-12-11T09:18:20;11.87;;;7.37;;
31730;SDS011;18310;55.586;12.286;2022-12-11T09:21:24;11.10;;;6.57;;
31730;SDS011;18310;55.586;12.286;2022-12-11T09:24:31;11.15;;;6.82;;
31730;SDS011;18310;55.586;12.286;2022-12-11T09:27:35;10.20;;;6.43;;
31730;SDS011;18310;55.586;12.286;2022-12-11T09:30:38;11.60;;;6.78;;
31730;SDS011;18310;55.586;12.286;2022-12-11T09:33:42;11.83;;;7.23;;
31730;SDS011;18310;55.586;12.286;2022-12-11T09:39:48;11.15;;;6.75;;
31730;SDS011;18310;55.586;12.286;2022-12-11T09:42:53;10.97;;;6.27;;
31730;SDS011;18310;55.586;12.286;2022-12-11T09:46:05;11.63;;;6.40;;
31730;SDS011;18310;55.586;12.286;2022-12-11T09:49:19;11.30;;;6.35;;
31730;SDS011;18310;55.586;12.286;2022-12-11T09:52:31;12.23;;;6.85;;
31730;SDS011;18310;55.586;12.286;2022-12-11T09:55:42;12.25;;;6.90;;
31730;SDS011;18310;55.586;12.286;2022-12-11T09:59:00;12.27;;;7.18;;
31730;SDS011;18310;55.586;12.286;2022-12-11T10:02:18;10.18;;;6.07;;
31730;SDS011;18310;55.586;12.286;2022-12-11T10:05:35;13.32;;;6.72;;
31730;SDS011;18310;55.586;12.286;2022-12-11T10:08:51;10.73;;;6.32;;
31730;SDS011;18310;55.586;12.286;2022-12-11T10:12:07;10.00;;;5.70;;
31730;SDS011;18310;55.586;12.286;2022-12-11T10:15:29;11.35;;;6.72;;
31730;SDS011;18310;55.586;12.286;2022-12-11T10:18:40;9.93;;;6.22;;
31730;SDS011;18310;55.586;12.286;2022-12-11T10:21:43;11.17;;;6.57;;
31730;SDS011;18310;55.586;12.286;2022-12-11T10:24:50;10.65;;;5.88;;
31730;SDS011;18310;55.586;12.286;2022-12-11T10:28:12;13.77;;;6.78;;
31730;SDS011;18310;55.586;12.286;2022-12-11T10:31:19;12.95;;;6.40;;
31730;SDS011;18310;55.586;12.286;2022-12-11T10:34:34;11.82;;;7.07;;
31730;SDS011;18310;55.586;12.286;2022-12-11T10:37:40;10.68;;;7.20;;
31730;SDS011;18310;55.586;12.286;2022-12-11T10:40:44;13.48;;;7.90;;
31730;SDS011;18310;55.586;12.286;2022-12-11T10:43:51;10.38;;;6.68;;
31730;SDS011;18310;55.586;12.286;2022-12-11T10:47:03;9.80;;;6.05;;
31730;SDS011;18310;55.586;12.286;2022-12-11T10:50:20;13.73;;;7.20;;
31730;SDS011;18310;55.586;12.286;2022-12-11T10:53:26;12.30;;;7.15;;
31730;SDS011;18310;55.586;12.286;2022-12-11T10:59:38;15.20;;;7.97;;
31730;SDS011;18310;55.586;12.286;2022-12-11T11:02:48;12.27;;;7.40;;
31730;SDS011;18310;55.586;12.286;2022-12-11T11:06:00;12.73;;;7.97;;
31730;SDS011;18310;55.586;12.286;2022-12-11T11:09:21;14.35;;;8.18;;
31730;SDS011;18310;55.586;12.286;2022-12-11T11:12:35;14.30;;;8.23;;
31730;SDS011;18310;55.586;12.286;2022-12-11T11:15:41;15.60;;;9.30;;
31730;SDS011;18310;55.586;12.286;2022-12-11T11:18:51;15.32;;;8.85;;
31730;SDS011;18310;55.586;12.286;2022-12-11T11:21:57;17.05;;;9.55;;
31730;SDS011;18310;55.586;12.286;2022-12-11T11:25:14;14.02;;;8.52;;
31730;SDS011;18310;55.586;12.286;2022-12-11T11:28:21;15.35;;;9.13;;
31730;SDS011;18310;55.586;12.286;2022-12-11T11:31:31;17.15;;;10.00;;
31730;SDS011;18310;55.586;12.286;2022-12-11T11:34:38;13.02;;;8.30;;
31730;SDS011;18310;55.586;12.286;2022-12-11T11:37:44;14.75;;;8.30;;
31730;SDS011;18310;55.586;12.286;2022-12-11T11:40:55;12.80;;;7.85;;
31730;SDS011;18310;55.586;12.286;2022-12-11T11:44:17;15.10;;;9.38;;
31730;SDS011;18310;55.586;12.286;2022-12-11T11:47:30;14.55;;;8.98;;
31730;SDS011;18310;55.586;12.286;2022-12-11T11:50:44;13.85;;;8.43;;
31730;SDS011;18310;55.586;12.286;2022-12-11T11:53:50;14.40;;;9.13;;
31730;SDS011;18310;55.586;12.286;2022-12-11T11:57:00;13.70;;;8.80;;
31730;SDS011;18310;55.586;12.286;2022-12-11T12:00:17;14.65;;;9.25;;
31730;SDS011;18310;55.586;12.286;2022-12-11T12:03:23;14.18;;;8.32;;
31730;SDS011;18310;55.586;12.286;2022-12-11T12:06:32;13.98;;;8.55;;
31730;SDS011;18310;55.586;12.286;2022-12-11T12:09:58;12.48;;;8.18;;
31730;SDS011;18310;55.586;12.286;2022-12-11T12:16:44;13.35;;;8.18;;
31730;SDS011;18310;55.586;12.286;2022-12-11T12:20:03;12.45;;;7.43;;
31730;SDS011;18310;55.586;12.286;2022-12-11T12:23:27;13.63;;;8.13;;
31730;SDS011;18310;55.586;12.286;2022-12-11T12:26:47;11.55;;;7.47;;
31730;SDS011;18310;55.586;12.286;2022-12-11T12:30:00;13.70;;;8.02;;
31730;SDS011;18310;55.586;12.286;2022-12-11T12:33:15;11.68;;;8.00;;
31730;SDS011;18310;55.586;12.286;2022-12-11T12:36:36;12.55;;;8.10;;
31730;SDS011;18310;55.586;12.286;2022-12-11T12:39:55;11.27;;;7.13;;
31730;SDS011;18310;55.586;12.286;2022-12-11T12:43:27;13.18;;;8.05;;
31730;SDS011;18310;55.586;12.286;2022-12-11T12:47:01;12.10;;;7.50;;
31730;SDS011;18310;55.586;12.286;2022-12-11T12:50:13;10.18;;;6.82;;
31730;SDS011;18310;55.586;12.286;2022-12-11T12:53:22;13.45;;;7.22;;
31730;SDS011;18310;55.586;12.286;2022-12-11T12:56:30;12.23;;;6.88;;
31730;SDS011;18310;55.586;12.286;2022-12-11T12:59:35;11.60;;;6.90;;
31730;SDS011;18310;55.586;12.286;2022-12-11T13:02:45;10.80;;;6.67;;
31730;SDS011;18310;55.586;12.286;2022-12-11T13:05:55;9.60;;;6.33;;
31730;SDS011;18310;55.586;12.286;2022-12-11T13:09:09;8.77;;;5.65;;
31730;SDS011;18310;55.586;12.286;2022-12-11T13:12:27;10.38;;;6.32;;
31730;SDS011;18310;55.586;12.286;2022-12-11T13:15:42;10.25;;;5.90;;
31730;SDS011;18310;55.586;12.286;2022-12-11T13:18:46;9.63;;;6.07;;
31730;SDS011;18310;55.586;12.286;2022-12-11T13:21:54;12.07;;;5.97;;
31730;SDS011;18310;55.586;12.286;2022-12-11T13:25:01;9.07;;;6.10;;
31730;SDS011;18310;55.586;12.286;2022-12-11T13:28:31;10.35;;;5.93;;
31730;SDS011;18310;55.586;12.286;2022-12-11T13:31:55;9.68;;;6.00;;
31730;SDS011;18310;55.586;12.286;2022-12-11T13:35:03;10.55;;;5.88;;
31730;SDS011;18310;55.586;12.286;2022-12-11T13:38:13;10.00;;;5.90;;
31730;SDS011;18310;55.586;12.286;2022-12-11T13:41:22;9.57;;;5.90;;
31730;SDS011;18310;55.586;12.286;2022-12-11T13:44:27;10.27;;;6.57;;
31730;SDS011;18310;55.586;12.286;2022-12-11T13:47:34;9.88;;;6.55;;
31730;SDS011;18310;55.586;12.286;2022-12-11T13:50:38;11.70;;;6.35;;
31730;SDS011;18310;55.586;12.286;2022-12-11T13:53:46;13.18;;;6.82;;
31730;SDS011;18310;55.586;12.286;2022-12-11T13:56:54;10.85;;;6.85;;
31730;SDS011;18310;55.586;12.286;2022-12-11T14:00:02;9.68;;;6.80;;
31730;SDS011;18310;55.586;12.286;2022-12-11T14:03:06;11.57;;;6.75;;
31730;SDS011;18310;55.586;12.286;2022-12-11T14:06:09;9.27;;;6.20;;
31730;SDS011;18310;55.586;12.286;2022-12-11T14:09:19;11.80;;;6.57;;
31730;SDS011;18310;55.586;12.286;2022-12-11T14:12:27;9.48;;;5.57;;
31730;SDS011;18310;55.586;12.286;2022-12-11T14:15:34;12.63;;;7.78;;
31730;SDS011;18310;55.586;12.286;2022-12-11T14:18:39;11.85;;;5.80;;
31730;SDS011;18310;55.586;12.286;2022-12-11T14:21:53;10.55;;;6.97;;
31730;SDS011;18310;55.586;12.286;2022-12-11T14:24:59;9.98;;;6.57;;
31730;SDS011;18310;55.586;12.286;2022-12-11T14:28:17;11.80;;;7.18;;
31730;SDS011;18310;55.586;12.286;2022-12-11T14:31:24;12.40;;;7.10;;
31730;SDS011;18310;55.586;12.286;2022-12-11T14:34:33;14.60;;;7.47;;
31730;SDS011;18310;55.586;12.286;2022-12-11T14:37:43;12.35;;;7.50;;
31730;SDS011;18310;55.586;12.286;2022-12-11T14:40:48;13.82;;;8.63;;
31730;SDS011;18310;55.586;12.286;2022-12-11T14:43:58;12.93;;;7.88;;
31730;SDS011;18310;55.586;12.286;2022-12-11T14:47:09;14.20;;;8.95;;
31730;SDS011;18310;55.586;12.286;2022-12-11T14:50:17;18.20;;;9.80;;
31730;SDS011;18310;55.586;12.286;2022-12-11T14:53:27;16.15;;;8.88;;
31730;SDS011;18310;55.586;12.286;2022-12-11T14:56:36;15.95;;;9.50;;
31730;SDS011;18310;55.586;12.286;2022-12-11T14:59:42;17.20;;;10.57;;
31730;SDS011;18310;55.586;12.286;2022-12-11T15:02:57;15.68;;;9.65;;
31730;SDS011;18310;55.586;12.286;2022-12-11T15:06:03;18.52;;;10.77;;
31730;SDS011;18310;55.586;12.286;2022-12-11T15:09:26;15.75;;;9.63;;
31730;SDS011;18310;55.586;12.286;2022-12-11T15:12:42;17.10;;;10.43;;
31730;SDS011;18310;55.586;12.286;2022-12-11T15:15:46;17.80;;;10.23;;
31730;SDS011;18310;55.586;12.286;2022-12-11T15:18:51;19.38;;;10.40;;
31730;SDS011;18310;55.586;12.286;2022-12-11T15:22:00;21.92;;;11.45;;
31730;SDS011;18310;55.586;12.286;2022-12-11T15:25:15;18.70;;;11.60;;
31730;SDS011;18310;55.586;12.286;2022-12-11T15:28:25;18.52;;;10.55;;
31730;SDS011;18310;55.586;12.286;2022-12-11T15:31:31;18.30;;;11.00;;
31730;SDS011;18310;55.586;12.286;2022-12-11T15:34:42;18.98;;;9.68;;
31730;SDS011;18310;55.586;12.286;2022-12-11T15:37:50;21.13;;;10.07;;
31730;SDS011;18310;55.586;12.286;2022-12-11T15:40:55;19.10;;;10.35;;
31730;SDS011;18310;55.586;12.286;2022-12-11T15:43:59;20.15;;;9.68;;
31730;SDS011;18310;55.586;12.286;2022-12-11T15:47:10;16.92;;;9.88;;
31730;SDS011;18310;55.586;12.286;2022-12-11T15:50:16;18.23;;;11.05;;
31730;SDS011;18310;55.586;12.286;2022-12-11T15:53:23;18.58;;;9.60;;
31730;SDS011;18310;55.586;12.286;2022-12-11T15:56:26;17.73;;;9.97;;
31730;SDS011;18310;55.586;12.286;2022-12-11T15:59:29;18.75;;;10.07;;
31730;SDS011;18310;55.586;12.286;2022-12-11T16:02:33;15.90;;;9.77;;
31730;SDS011;18310;55.586;12.286;2022-12-11T16:05:37;17.27;;;9.47;;
31730;SDS011;18310;55.586;12.286;2022-12-11T16:08:41;16.15;;;9.30;;
31730;SDS011;18310;55.586;12.286;2022-12-11T16:11:44;16.60;;;9.60;;
31730;SDS011;18310;55.586;12.286;2022-12-11T16:14:47;17.73;;;9.10;;
31730;SDS011;18310;55.586;12.286;2022-12-11T16:17:57;14.30;;;8.67;;
31730;SDS011;18310;55.586;12.286;2022-12-11T16:21:04;16.13;;;8.60;;
31730;SDS011;18310;55.586;12.286;2022-12-11T16:24:08;14.77;;;7.80;;
31730;SDS011;18310;55.586;12.286;2022-12-11T16:27:11;16.50;;;8.90;;
31730;SDS011;18310;55.586;12.286;2022-12-11T16:30:20;13.43;;;8.02;;
31730;SDS011;18310;55.586;12.286;2022-12-11T16:33:23;15.73;;;9.07;;
31730;SDS011;18310;55.586;12.286;2022-12-11T16:36:28;19.30;;;8.43;;
31730;SDS011;18310;55.586;12.286;2022-12-11T16:39:31;16.08;;;8.95;;
31730;SDS011;18310;55.586;12.286;2022-12-11T16:42:34;15.02;;;9.00;;
31730;SDS011;18310;55.586;12.286;2022-12-11T16:45:39;16.63;;;9.20;;
31730;SDS011;18310;55.586;12.286;2022-12-11T16:48:44;17.27;;;8.77;;
31730;SDS011;18310;55.586;12.286;2022-12-11T16:51:48;15.88;;;8.90;;
31730;SDS011;18310;55.586;12.286;2022-12-11T16:54:52;15.13;;;8.98;;
31730;SDS011;18310;55.586;12.286;2022-12-11T16:57:55;18.10;;;9.95;;
31730;SDS011;18310;55.586;12.286;2022-12-11T17:00:58;17.33;;;9.95;;
31730;SDS011;18310;55.586;12.286;2022-12-11T17:04:03;17.38;;;10.45;;
31730;SDS011;18310;55.586;12.286;2022-12-11T17:07:08;18.20;;;9.48;;
31730;SDS011;18310;55.586;12.286;2022-12-11T17:10:11;18.98;;;10.82;;
31730;SDS011;18310;55.586;12.286;2022-12-11T17:13:14;16.83;;;9.75;;
31730;SDS011;18310;55.586;12.286;2022-12-11T17:16:17;17.30;;;9.30;;
31730;SDS011;18310;55.586;12.286;2022-12-11T17:19:22;17.80;;;9.52;;
31730;SDS011;18310;55.586;12.286;2022-12-11T17:22:27;15.02;;;9.60;;
31730;SDS011;18310;55.586;12.286;2022-12-11T17:25:31;14.50;;;8.85;;
31730;SDS011;18310;55.586;12.286;2022-12-11T17:28:35;17.10;;;9.40;;
31730;SDS011;18310;55.586;12.286;2022-12-11T17:31:40;17.10;;;9.80;;
31730;SDS011;18310;55.586;12.286;2022-12-11T17:34:43;14.07;;;9.35;;
31730;SDS011;18310;55.586;12.286;2022-12-11T17:37:49;21.00;;;11.55;;
31730;SDS011;18310;55.586;12.286;2022-12-11T17:40:53;18.08;;;10.80;;
31730;SDS011;18310;55.586;12.286;2022-12-11T17:43:59;17.73;;;10.75;;
31730;SDS011;18310;55.586;12.286;2022-12-11T17:47:03;17.42;;;10.48;;
31730;SDS011;18310;55.586;12.286;2022-12-11T17:50:11;16.05;;;10.48;;
31730;SDS011;18310;55.586;12.286;2022-12-11T17:53:18;17.45;;;9.52;;
31730;SDS011;18310;55.586;12.286;2022-12-11T17:56:23;15.63;;;9.85;;
31730;SDS011;18310;55.586;12.286;2022-12-11T17:59:27;17.65;;;10.57;;
31730;SDS011;18310;55.586;12.286;2022-12-11T18:02:31;16.67;;;10.45;;
31730;SDS011;18310;55.586;12.286;2022-12-11T18:05:39;17.65;;;11.18;;
31730;SDS011;18310;55.586;12.286;2022-12-11T18:08:45;16.42;;;9.30;;
31730;SDS011;18310;55.586;12.286;2022-12-11T18:11:48;17.35;;;9.88;;
31730;SDS011;18310;55.586;12.286;2022-12-11T18:14:52;18.65;;;10.75;;
31730;SDS011;18310;55.586;12.286;2022-12-11T18:17:55;17.17;;;10.17;;
31730;SDS011;18310;55.586;12.286;2022-12-11T18:24:04;13.85;;;8.30;;
31730;SDS011;18310;55.586;12.286;2022-12-11T18:27:08;13.52;;;8.35;;
31730;SDS011;18310;55.586;12.286;2022-12-11T18:30:14;12.23;;;8.27;;
31730;SDS011;18310;55.586;12.286;2022-12-11T18:33:17;14.75;;;8.73;;
31730;SDS011;18310;55.586;12.286;2022-12-11T18:36:20;16.67;;;8.30;;